createdAt,value
2022-10-20T00:02:33.105Z,9.54
2022-10-20T00:05:19.433Z,9.31
2022-10-20T00:08:05.309Z,9.23
2022-10-20T00:10:58.216Z,9.27
2022-10-20T00:13:45.079Z,9.56
2022-10-20T00:16:32.375Z,9.60
2022-10-20T00:19:17.997Z,9.54
2022-10-20T00:22:04.669Z,8.92
2022-10-20T00:24:51.706Z,7.97
2022-10-20T00:27:37.951Z,8.72
2022-10-20T00:30:25.087Z,8.82
2022-10-20T00:33:12.306Z,8.33
2022-10-20T00:35:59.402Z,8.41
2022-10-20T00:38:45.437Z,8.49
2022-10-20T00:41:33.644Z,7.48
2022-10-20T00:44:40.573Z,7.95
2022-10-20T00:47:32.563Z,8.04
2022-10-20T00:50:21.197Z,7.27
2022-10-20T00:53:07.045Z,5.66
2022-10-20T00:55:54.154Z,6.53
2022-10-20T00:58:40.047Z,6.95
2022-10-20T01:01:26.366Z,6.43
2022-10-20T01:04:13.664Z,7.05
2022-10-20T01:06:59.809Z,6.79
2022-10-20T01:09:46.862Z,6.77
2022-10-20T01:12:36.070Z,7.60
2022-10-20T01:15:27.355Z,7.05
2022-10-20T01:18:26.255Z,7.83
2022-10-20T01:21:31.011Z,8.00
2022-10-20T01:24:39.018Z,8.17
2022-10-20T01:27:35.939Z,8.34
2022-10-20T01:30:22.807Z,7.79
2022-10-20T01:33:11.880Z,8.44
2022-10-20T01:36:17.151Z,8.50
2022-10-20T01:39:08.154Z,8.50
2022-10-20T01:41:56.684Z,7.68
2022-10-20T01:44:44.051Z,8.04
2022-10-20T01:47:30.366Z,7.57
2022-10-20T01:50:17.651Z,8.22
2022-10-20T01:53:04.682Z,7.78
2022-10-20T01:55:52.862Z,7.35
2022-10-20T01:58:48.017Z,7.91
2022-10-20T02:01:41.683Z,6.86
2022-10-20T02:04:30.685Z,7.09
2022-10-20T02:07:18.076Z,7.32
2022-10-20T02:10:15.726Z,7.54
2022-10-20T02:13:03.330Z,7.44
2022-10-20T02:15:54.021Z,7.59
2022-10-20T02:18:40.944Z,7.88
2022-10-20T02:21:27.725Z,7.53
2022-10-20T02:24:13.865Z,7.93
2022-10-20T02:27:01.374Z,6.13
2022-10-20T02:29:49.052Z,7.26
2022-10-20T02:32:36.326Z,7.55
2022-10-20T02:35:23.787Z,7.42
2022-10-20T02:38:10.985Z,7.24
2022-10-20T02:40:56.757Z,7.68
2022-10-20T02:43:43.609Z,7.56
2022-10-20T02:46:30.413Z,7.73
2022-10-20T02:49:16.944Z,7.60
2022-10-20T02:52:03.083Z,7.35
2022-10-20T02:54:55.542Z,7.28
2022-10-20T02:57:41.363Z,7.50
2022-10-20T03:00:31.121Z,6.97
2022-10-20T03:03:18.713Z,7.63
2022-10-20T03:06:11.042Z,7.14
2022-10-20T03:08:57.982Z,7.47
2022-10-20T03:11:44.209Z,7.56
2022-10-20T03:14:30.169Z,7.39
2022-10-20T03:17:17.960Z,7.13
2022-10-20T03:20:05.583Z,7.50
2022-10-20T03:22:53.410Z,7.49
2022-10-20T03:25:40.601Z,6.39
2022-10-20T03:28:26.912Z,7.26
2022-10-20T03:31:14.553Z,7.16
2022-10-20T03:34:00.913Z,7.24
2022-10-20T03:36:48.976Z,6.54
2022-10-20T03:39:40.516Z,7.20
2022-10-20T03:42:31.784Z,7.01
2022-10-20T03:45:19.221Z,5.85
2022-10-20T03:48:08.546Z,6.59
2022-10-20T03:51:03.003Z,6.73
2022-10-20T03:53:52.858Z,5.45
2022-10-20T03:56:40.610Z,5.84
2022-10-20T03:59:29.592Z,5.16
2022-10-20T04:02:33.866Z,6.37
2022-10-20T04:05:22.152Z,6.31
2022-10-20T04:08:12.863Z,6.53
2022-10-20T04:11:00.067Z,6.75
2022-10-20T04:13:46.545Z,6.42
2022-10-20T04:16:33.342Z,6.90
2022-10-20T04:19:19.986Z,6.99
2022-10-20T04:22:08.652Z,6.88
2022-10-20T04:24:59.166Z,7.21
2022-10-20T04:27:47.614Z,7.15
2022-10-20T04:30:34.070Z,6.82
2022-10-20T04:33:28.777Z,6.58
2022-10-20T04:36:15.488Z,6.68
2022-10-20T04:39:06.633Z,6.81
2022-10-20T04:41:56.921Z,6.10
2022-10-20T04:44:44.142Z,5.59
2022-10-20T04:47:34.016Z,5.80
2022-10-20T04:50:22.079Z,5.05
2022-10-20T04:53:25.894Z,5.24
2022-10-20T04:56:19.859Z,5.44
2022-10-20T04:59:09.662Z,6.21
2022-10-20T05:02:10.470Z,6.30
2022-10-20T05:04:57.416Z,5.90
2022-10-20T05:07:45.713Z,5.57
2022-10-20T05:10:39.983Z,6.40
2022-10-20T05:13:27.852Z,6.61
2022-10-20T05:16:17.608Z,6.24
2022-10-20T05:19:06.677Z,6.76
2022-10-20T05:21:57.479Z,6.45
2022-10-20T05:24:44.608Z,6.71
2022-10-20T05:27:31.696Z,6.94
2022-10-20T05:30:18.363Z,6.88
2022-10-20T05:33:06.041Z,6.69
2022-10-20T05:35:54.766Z,6.22
2022-10-20T05:38:41.262Z,6.06
2022-10-20T05:41:33.497Z,6.46
2022-10-20T05:44:24.054Z,6.21
2022-10-20T05:47:14.676Z,6.01
2022-10-20T05:50:03.509Z,6.07
2022-10-20T05:52:53.229Z,6.10
2022-10-20T05:55:40.631Z,6.41
2022-10-20T05:58:38.518Z,5.68
2022-10-20T06:01:27.028Z,6.20
2022-10-20T06:04:25.503Z,6.50
2022-10-20T06:07:18.591Z,6.44
2022-10-20T06:10:07.740Z,6.44
2022-10-20T06:12:55.027Z,6.41
2022-10-20T06:15:49.371Z,5.83
2022-10-20T06:18:40.410Z,5.07
2022-10-20T06:21:29.448Z,5.25
2022-10-20T06:24:18.772Z,6.15
2022-10-20T06:27:05.155Z,6.37
2022-10-20T06:29:54.860Z,6.01
2022-10-20T06:32:44.854Z,6.96
2022-10-20T06:35:33.574Z,6.80
2022-10-20T06:38:19.768Z,6.15
2022-10-20T06:41:08.845Z,6.72
2022-10-20T06:43:59.374Z,7.41
2022-10-20T06:46:46.028Z,7.21
2022-10-20T06:49:39.566Z,6.99
2022-10-20T06:52:26.930Z,7.49
2022-10-20T06:55:15.305Z,7.24
2022-10-20T06:58:03.055Z,7.38
2022-10-20T07:01:11.077Z,7.70
2022-10-20T07:04:00.697Z,7.42
2022-10-20T07:06:48.465Z,7.58
2022-10-20T07:09:35.224Z,7.80
2022-10-20T07:12:21.560Z,8.18
2022-10-20T07:15:09.453Z,8.17
2022-10-20T07:17:57.003Z,8.28
2022-10-20T07:20:43.704Z,8.69
2022-10-20T07:23:32.611Z,8.90
2022-10-20T07:26:24.797Z,9.09
2022-10-20T07:29:11.931Z,9.28
2022-10-20T07:32:01.424Z,9.35
2022-10-20T07:34:51.228Z,9.61
2022-10-20T07:37:38.630Z,9.57
2022-10-20T07:40:31.731Z,10.32
2022-10-20T07:43:20.208Z,9.79
2022-10-20T07:46:08.552Z,10.22
2022-10-20T07:52:07.730Z,10.95
2022-10-20T07:55:01.615Z,11.16
2022-10-20T07:58:00.709Z,10.42
2022-10-20T08:00:53.986Z,10.74
2022-10-20T08:03:42.531Z,11.32
2022-10-20T08:06:29.640Z,11.19
2022-10-20T08:09:16.257Z,11.38
2022-10-20T08:12:04.641Z,11.30
2022-10-20T08:14:52.144Z,11.60
2022-10-20T08:17:40.537Z,11.71
2022-10-20T08:20:30.309Z,11.16
2022-10-20T08:23:18.336Z,11.33
2022-10-20T08:26:09.052Z,11.27
2022-10-20T08:28:56.971Z,11.77
2022-10-20T08:31:46.403Z,11.87
2022-10-20T08:34:32.879Z,11.23
2022-10-20T08:37:19.723Z,11.91
2022-10-20T08:43:17.671Z,11.99
2022-10-20T08:46:16.533Z,12.28
2022-10-20T08:49:06.294Z,12.17
2022-10-20T08:51:55.006Z,11.77
2022-10-20T08:54:42.285Z,12.40
2022-10-20T08:57:34.563Z,12.35
2022-10-20T09:00:25.638Z,12.29
2022-10-20T09:03:27.734Z,12.49
2022-10-20T09:06:16.508Z,12.89
2022-10-20T09:09:04.014Z,12.61
2022-10-20T09:11:51.546Z,13.11
2022-10-20T09:14:38.132Z,13.15
2022-10-20T09:17:26.002Z,13.08
2022-10-20T09:20:23.936Z,13.42
2022-10-20T09:23:41.488Z,13.41
2022-10-20T09:29:48.630Z,13.60
2022-10-20T09:32:52.908Z,13.46
2022-10-20T09:35:41.416Z,14.10
2022-10-20T09:38:30.429Z,14.35
2022-10-20T09:41:22.440Z,14.38
2022-10-20T09:44:15.134Z,14.27
2022-10-20T09:47:02.900Z,14.23
2022-10-20T09:49:50.515Z,13.49
2022-10-20T09:52:47.318Z,13.58
2022-10-20T09:55:41.477Z,14.32
2022-10-20T09:58:29.990Z,14.59
2022-10-20T10:04:12.387Z,16.57
2022-10-20T10:06:59.060Z,17.14
2022-10-20T10:09:50.870Z,17.24
2022-10-20T10:12:40.149Z,16.59
2022-10-20T10:15:31.321Z,16.49
2022-10-20T10:18:21.859Z,17.25
2022-10-20T10:21:09.904Z,17.13
2022-10-20T10:24:06.689Z,17.00
2022-10-20T10:26:55.721Z,16.56
2022-10-20T10:29:43.804Z,16.67
2022-10-20T10:32:30.905Z,17.55
2022-10-20T10:35:29.339Z,18.14
2022-10-20T10:38:18.040Z,17.96
2022-10-20T10:41:11.566Z,16.39
2022-10-20T10:44:08.074Z,16.82
2022-10-20T10:46:54.896Z,16.51
2022-10-20T10:49:42.050Z,16.51
2022-10-20T10:53:01.902Z,16.91
2022-10-20T10:55:58.351Z,16.45
2022-10-20T10:58:59.654Z,15.66
2022-10-20T11:01:57.849Z,15.84
2022-10-20T11:05:00.693Z,15.88
2022-10-20T11:07:51.959Z,16.41
2022-10-20T11:10:44.585Z,16.32
2022-10-20T11:13:38.054Z,16.22
2022-10-20T11:16:27.342Z,15.95
2022-10-20T11:19:14.099Z,16.25
2022-10-20T11:22:09.433Z,15.66
2022-10-20T11:25:23.671Z,15.74
2022-10-20T11:28:21.754Z,16.43
2022-10-20T11:31:10.142Z,16.53
2022-10-20T11:34:19.767Z,15.96
2022-10-20T11:37:08.186Z,15.67
2022-10-20T11:40:15.722Z,15.98
2022-10-20T11:43:32.475Z,16.07
2022-10-20T11:46:27.605Z,16.38
2022-10-20T11:49:15.220Z,16.59
2022-10-20T11:52:07.506Z,15.20
2022-10-20T11:54:58.338Z,15.29
2022-10-20T11:58:08.820Z,14.95
2022-10-20T12:00:59.566Z,15.67
2022-10-20T12:03:48.473Z,15.99
2022-10-20T12:06:40.566Z,15.83
2022-10-20T12:09:45.688Z,16.21
2022-10-20T12:12:36.046Z,16.07
2022-10-20T12:15:27.896Z,15.71
2022-10-20T12:18:35.545Z,16.40
2022-10-20T12:21:43.686Z,16.32
2022-10-20T12:24:37.635Z,15.21
2022-10-20T12:27:27.998Z,16.31
2022-10-20T12:30:17.973Z,15.83
2022-10-20T12:33:18.533Z,15.95
2022-10-20T12:36:17.264Z,16.30
2022-10-20T12:42:05.400Z,16.42
2022-10-20T12:45:02.725Z,15.92
2022-10-20T12:47:51.498Z,15.40
2022-10-20T12:50:40.859Z,16.46
2022-10-20T12:53:32.771Z,16.38
2022-10-20T12:56:21.501Z,16.81
2022-10-20T12:59:34.421Z,16.40
2022-10-20T13:02:24.934Z,16.14
2022-10-20T13:05:14.664Z,16.33
2022-10-20T13:08:06.502Z,15.59
2022-10-20T13:11:26.771Z,15.26
2022-10-20T13:14:37.133Z,15.61
2022-10-20T13:17:27.816Z,16.04
2022-10-20T13:20:36.734Z,16.10
2022-10-20T13:23:33.585Z,16.45
2022-10-20T13:26:22.539Z,17.39
2022-10-20T13:29:14.782Z,17.92
2022-10-20T13:35:08.763Z,19.38
2022-10-20T13:38:03.490Z,19.63
2022-10-20T13:44:09.846Z,20.07
2022-10-20T13:47:18.421Z,19.96
2022-10-20T13:50:12.530Z,20.80
2022-10-20T13:53:05.720Z,20.75
2022-10-20T13:55:58.937Z,20.95
2022-10-20T13:59:08.555Z,21.65
2022-10-20T14:02:04.572Z,21.54
2022-10-20T14:05:09.807Z,21.61
2022-10-20T14:08:03.259Z,21.93
2022-10-20T14:10:55.559Z,20.24
2022-10-20T14:13:52.246Z,20.50
2022-10-20T14:16:47.973Z,20.46
2022-10-20T14:19:35.758Z,19.86
2022-10-20T14:22:23.781Z,20.34
2022-10-20T14:28:11.701Z,20.73
2022-10-20T14:30:57.574Z,20.51
2022-10-20T14:33:48.681Z,21.29
2022-10-20T14:36:35.557Z,21.26
2022-10-20T14:39:32.595Z,21.68
2022-10-20T14:42:22.061Z,21.66
2022-10-20T14:45:17.421Z,21.31
2022-10-20T14:48:13.535Z,21.52
2022-10-20T14:51:25.522Z,21.71
2022-10-20T14:54:17.377Z,22.06
2022-10-20T14:57:10.450Z,22.32
2022-10-20T15:00:21.718Z,22.56
2022-10-20T15:03:14.667Z,22.12
2022-10-20T15:06:04.867Z,21.96
2022-10-20T15:11:49.809Z,21.36
2022-10-20T15:20:40.577Z,19.77
2022-10-20T15:26:24.574Z,18.98
2022-10-20T15:29:12.681Z,18.22
2022-10-20T15:32:06.704Z,18.04
2022-10-20T15:35:00.549Z,17.75
2022-10-20T15:37:54.572Z,17.51
2022-10-20T15:40:46.762Z,17.13
2022-10-20T15:43:38.951Z,16.91
2022-10-20T15:46:29.987Z,16.84
2022-10-20T15:49:17.417Z,16.72
2022-10-20T15:52:09.489Z,16.44
2022-10-20T15:54:58.541Z,16.18
2022-10-20T15:57:48.552Z,16.17
2022-10-20T16:00:38.711Z,15.91
2022-10-20T16:03:36.528Z,15.68
2022-10-20T16:06:25.061Z,15.78
2022-10-20T16:09:16.149Z,15.52
2022-10-20T16:12:11.621Z,15.25
2022-10-20T16:15:02.554Z,14.76
2022-10-20T16:18:03.538Z,14.77
2022-10-20T16:21:00.562Z,14.54
2022-10-20T16:23:54.250Z,14.26
2022-10-20T16:26:49.997Z,14.05
2022-10-20T16:29:40.511Z,13.71
2022-10-20T16:35:42.555Z,13.41
2022-10-20T16:38:40.106Z,13.17
2022-10-20T16:41:28.247Z,13.09
2022-10-20T16:44:30.881Z,13.16
2022-10-20T16:47:28.593Z,13.17
2022-10-20T16:50:23.570Z,12.99
2022-10-20T16:53:27.573Z,12.57
2022-10-20T17:02:07.797Z,12.27
2022-10-20T17:04:59.508Z,12.10
2022-10-20T17:07:47.937Z,12.26
2022-10-20T17:10:46.653Z,12.22
2022-10-20T17:13:35.822Z,12.27
2022-10-20T17:19:44.500Z,12.01
2022-10-20T17:22:41.528Z,11.82
2022-10-20T17:25:45.731Z,11.68
2022-10-20T17:28:42.561Z,11.58
2022-10-20T17:31:42.765Z,11.61
2022-10-20T17:34:52.429Z,11.45
2022-10-20T17:37:42.566Z,11.23
2022-10-20T17:40:39.531Z,11.30
2022-10-20T17:43:54.853Z,10.95
2022-10-20T17:46:44.594Z,11.32
2022-10-20T17:52:34.087Z,11.35
2022-10-20T17:55:28.557Z,10.95
2022-10-20T17:58:16.519Z,10.88
2022-10-20T18:01:19.612Z,10.58
2022-10-20T18:04:13.755Z,10.80
2022-10-20T18:07:10.769Z,10.75
2022-10-20T18:10:04.555Z,10.64
2022-10-20T18:15:46.604Z,10.43
2022-10-20T18:18:35.539Z,10.27
2022-10-20T18:21:22.757Z,10.00
2022-10-20T18:24:21.586Z,9.96
2022-10-20T18:30:11.485Z,10.01
2022-10-20T18:36:08.280Z,9.88
2022-10-20T18:42:12.548Z,10.07
2022-10-20T18:45:09.398Z,9.94
2022-10-20T18:48:00.122Z,9.69
2022-10-20T18:51:04.601Z,9.36
2022-10-20T18:54:07.518Z,9.82
2022-10-20T18:57:09.547Z,9.40
2022-10-20T19:00:09.858Z,9.43
2022-10-20T19:03:02.499Z,9.48
2022-10-20T19:06:05.737Z,9.17
2022-10-20T19:09:00.539Z,9.76
2022-10-20T19:11:57.542Z,9.88
2022-10-20T19:14:45.512Z,9.88
2022-10-20T19:20:38.501Z,9.09
2022-10-20T19:23:37.011Z,9.34
2022-10-20T19:26:35.238Z,9.38
2022-10-20T19:29:36.671Z,9.23
2022-10-20T19:32:25.461Z,8.89
2022-10-20T19:38:07.844Z,9.23
2022-10-20T19:43:54.652Z,9.04
2022-10-20T19:52:59.003Z,8.76
2022-10-20T19:55:53.600Z,8.61
2022-10-20T19:58:48.473Z,8.54
2022-10-20T20:01:38.500Z,8.72
2022-10-20T20:04:29.991Z,8.92
2022-10-20T20:07:26.759Z,8.89
2022-10-20T20:10:13.842Z,8.96
2022-10-20T20:13:08.526Z,8.72
2022-10-20T20:16:04.872Z,8.72
2022-10-20T20:18:54.729Z,8.83
2022-10-20T20:21:43.825Z,8.33
2022-10-20T20:24:36.596Z,8.31
2022-10-20T20:27:25.726Z,8.39
2022-10-20T20:30:12.197Z,8.26
2022-10-20T20:32:59.770Z,8.72
2022-10-20T20:35:50.566Z,8.14
2022-10-20T20:38:44.561Z,8.35
2022-10-20T20:44:31.921Z,7.77
2022-10-20T20:47:22.531Z,8.38
2022-10-20T20:50:16.454Z,8.35
2022-10-20T20:53:12.538Z,8.07
2022-10-20T20:56:04.962Z,8.23
2022-10-20T20:58:55.102Z,8.16
2022-10-20T21:01:45.178Z,8.20
2022-10-20T21:04:34.002Z,8.66
2022-10-20T21:07:20.317Z,8.51
2022-10-20T21:10:14.321Z,8.17
2022-10-20T21:16:10.397Z,8.22
2022-10-20T21:18:58.669Z,7.99
2022-10-20T21:21:50.587Z,7.90
2022-10-20T21:24:37.513Z,8.19
2022-10-20T21:27:23.917Z,7.69
2022-10-20T21:30:13.437Z,7.48
2022-10-20T21:33:01.187Z,6.96
2022-10-20T21:35:53.287Z,6.61
2022-10-20T21:38:44.574Z,6.96
2022-10-20T21:41:32.176Z,6.96
2022-10-20T21:44:18.798Z,5.78
2022-10-20T21:47:06.620Z,5.91
2022-10-20T21:49:54.551Z,5.95
2022-10-20T21:52:40.906Z,6.41
2022-10-20T21:55:27.161Z,6.96
2022-10-20T21:58:13.737Z,6.53
2022-10-20T22:01:00.212Z,6.24
2022-10-20T22:03:48.729Z,6.87
2022-10-20T22:06:37.030Z,6.93
2022-10-20T22:09:32.847Z,6.48
2022-10-20T22:12:20.371Z,6.64
2022-10-20T22:15:08.866Z,6.61
2022-10-20T22:17:54.887Z,6.24
2022-10-20T22:20:41.687Z,6.22
2022-10-20T22:23:28.695Z,6.18
2022-10-20T22:26:14.944Z,6.27
2022-10-20T22:29:01.159Z,6.92
2022-10-20T22:31:47.594Z,6.47
2022-10-20T22:34:33.274Z,6.79
2022-10-20T22:37:21.150Z,6.75
2022-10-20T22:40:07.614Z,6.64
2022-10-20T22:42:53.910Z,6.46
2022-10-20T22:45:40.686Z,6.19
2022-10-20T22:48:26.847Z,5.99
2022-10-20T22:51:14.001Z,6.20
2022-10-20T22:54:00.355Z,5.99
2022-10-20T22:56:46.456Z,6.23
2022-10-20T22:59:34.863Z,6.47
2022-10-20T23:02:21.741Z,7.11
2022-10-20T23:05:14.634Z,7.25
2022-10-20T23:08:01.603Z,6.91
2022-10-20T23:10:58.033Z,7.09
2022-10-20T23:13:44.159Z,7.25
2022-10-20T23:16:30.744Z,7.15
2022-10-20T23:19:16.874Z,7.19
2022-10-20T23:22:06.643Z,7.32
2022-10-20T23:24:52.817Z,7.00
2022-10-20T23:27:39.658Z,7.42
2022-10-20T23:30:26.236Z,7.47
2022-10-20T23:33:13.756Z,7.45
2022-10-20T23:35:59.610Z,6.75
2022-10-20T23:38:50.073Z,6.75
2022-10-20T23:41:41.338Z,7.04
2022-10-20T23:44:27.844Z,6.96
2022-10-20T23:47:14.821Z,7.15
2022-10-20T23:50:04.745Z,6.93
2022-10-20T23:52:51.976Z,6.80
2022-10-20T23:55:38.780Z,6.34
2022-10-20T23:58:26.156Z,6.85
